createdAt,value
2018-12-17T00:00:19.585Z,25.72
2018-12-17T00:01:19.588Z,25.76
2018-12-17T00:02:19.591Z,25.72
2018-12-17T00:03:19.594Z,25.75
2018-12-17T00:04:19.596Z,25.70
2018-12-17T00:05:19.599Z,25.73
2018-12-17T00:06:19.609Z,25.72
2018-12-17T00:07:19.606Z,25.73
2018-12-17T00:08:19.611Z,25.70
2018-12-17T00:09:19.611Z,25.69
2018-12-17T00:10:19.614Z,25.72
2018-12-17T00:11:19.619Z,25.72
2018-12-17T00:12:19.618Z,25.72
2018-12-17T00:13:19.624Z,25.73
2018-12-17T00:14:19.626Z,25.69
2018-12-17T00:15:19.630Z,25.72
2018-12-17T00:16:19.632Z,25.72
2018-12-17T00:17:19.636Z,25.73
2018-12-17T00:18:19.638Z,25.72
2018-12-17T00:19:19.640Z,25.72
2018-12-17T00:20:19.642Z,25.79
2018-12-17T00:21:19.646Z,25.72
2018-12-17T00:22:19.657Z,25.75
2018-12-17T00:23:19.652Z,25.75
2018-12-17T00:24:19.655Z,25.75
2018-12-17T00:25:19.659Z,25.77
2018-12-17T00:26:19.660Z,25.70
2018-12-17T00:27:19.663Z,25.72
2018-12-17T00:28:19.667Z,25.73
2018-12-17T00:29:19.669Z,25.70
2018-12-17T00:30:19.673Z,25.79
2018-12-17T00:31:19.675Z,25.72
2018-12-17T00:32:19.675Z,25.76
2018-12-17T00:33:19.680Z,25.72
2018-12-17T00:34:19.685Z,25.73
2018-12-17T00:35:19.693Z,25.75
2018-12-17T00:36:19.694Z,25.73
2018-12-17T00:37:19.703Z,25.75
2018-12-17T00:38:19.696Z,25.75
2018-12-17T00:39:19.699Z,25.75
2018-12-17T00:40:19.702Z,25.76
2018-12-17T00:41:19.704Z,25.73
2018-12-17T00:42:19.709Z,25.72
2018-12-17T00:43:19.711Z,25.79
2018-12-17T00:44:19.713Z,25.76
2018-12-17T00:45:19.715Z,25.73
2018-12-17T00:46:19.768Z,25.72
2018-12-17T00:47:19.722Z,25.76
2018-12-17T00:48:19.724Z,25.75
2018-12-17T00:49:19.728Z,25.77
2018-12-17T00:50:19.730Z,25.77
2018-12-17T00:51:19.733Z,25.70
2018-12-17T00:52:19.735Z,25.77
2018-12-17T00:53:19.738Z,25.73
2018-12-17T00:54:19.741Z,25.75
2018-12-17T00:55:19.745Z,25.80
2018-12-17T00:56:19.747Z,25.73
2018-12-17T00:57:19.752Z,25.70
2018-12-17T00:58:19.753Z,25.73
2018-12-17T00:59:19.756Z,25.76
2018-12-17T01:00:19.758Z,25.75
2018-12-17T01:01:19.763Z,25.73
2018-12-17T01:02:19.766Z,25.75
2018-12-17T01:03:19.775Z,25.79
2018-12-17T01:04:19.776Z,25.79
2018-12-17T01:05:19.776Z,25.76
2018-12-17T01:06:19.826Z,25.75
2018-12-17T01:07:19.780Z,25.75
2018-12-17T01:08:19.781Z,25.75
2018-12-17T01:09:19.786Z,25.75
2018-12-17T01:10:19.789Z,25.77
2018-12-17T01:11:19.792Z,25.73
2018-12-17T01:12:19.798Z,25.79
2018-12-17T01:13:19.814Z,25.76
2018-12-17T01:14:19.800Z,25.69
2018-12-17T01:15:19.837Z,25.75
2018-12-17T01:16:19.804Z,25.73
2018-12-17T01:17:19.808Z,25.75
2018-12-17T01:18:19.812Z,25.67
2018-12-17T01:19:19.814Z,25.70
2018-12-17T01:20:19.816Z,25.72
2018-12-17T01:21:19.819Z,25.72
2018-12-17T01:22:19.822Z,25.75
2018-12-17T01:23:19.825Z,25.69
2018-12-17T01:24:19.827Z,25.72
2018-12-17T01:25:19.830Z,25.64
2018-12-17T01:26:19.835Z,25.76
2018-12-17T01:27:19.837Z,25.72
2018-12-17T01:28:22.282Z,25.72
2018-12-17T01:29:19.842Z,25.69
2018-12-17T01:30:19.845Z,25.75
2018-12-17T01:31:19.849Z,25.79
2018-12-17T01:32:19.851Z,25.73
2018-12-17T01:33:19.857Z,25.70
2018-12-17T01:34:19.857Z,25.75
2018-12-17T01:35:19.860Z,25.75
2018-12-17T01:36:19.862Z,25.79
2018-12-17T01:37:19.864Z,25.77
2018-12-17T01:38:19.869Z,25.75
2018-12-17T01:39:19.875Z,25.79
2018-12-17T01:40:19.874Z,25.73
2018-12-17T01:41:19.890Z,25.75
2018-12-17T01:42:19.881Z,25.76
2018-12-17T01:43:19.886Z,25.75
2018-12-17T01:44:19.885Z,25.76
2018-12-17T01:45:19.888Z,25.70
2018-12-17T01:46:19.892Z,25.75
2018-12-17T01:47:19.895Z,25.76
2018-12-17T01:48:19.897Z,25.73
2018-12-17T01:49:19.899Z,25.75
2018-12-17T01:50:19.903Z,25.75
2018-12-17T01:51:19.906Z,25.77
2018-12-17T01:52:19.908Z,25.76
2018-12-17T01:53:19.911Z,25.76
2018-12-17T01:54:19.915Z,25.73
2018-12-17T01:55:19.918Z,25.77
2018-12-17T01:56:19.919Z,25.82
2018-12-17T01:57:19.922Z,25.77
2018-12-17T01:58:19.926Z,25.75
2018-12-17T01:59:19.929Z,25.79
2018-12-17T02:00:19.930Z,25.79
2018-12-17T02:01:19.931Z,25.75
2018-12-17T02:02:19.937Z,25.77
2018-12-17T02:03:19.940Z,25.73
2018-12-17T02:04:19.942Z,25.73
2018-12-17T02:05:19.946Z,25.77
2018-12-17T02:06:19.999Z,25.80
2018-12-17T02:07:19.954Z,25.73
2018-12-17T02:08:19.954Z,25.77
2018-12-17T02:09:19.957Z,25.79
2018-12-17T02:10:19.961Z,25.77
2018-12-17T02:11:19.964Z,25.75
2018-12-17T02:12:19.967Z,25.75
2018-12-17T02:13:19.969Z,25.75
2018-12-17T02:14:19.972Z,25.79
2018-12-17T02:15:19.976Z,25.77
2018-12-17T02:16:19.983Z,25.73
2018-12-17T02:17:19.981Z,25.72
2018-12-17T02:18:19.983Z,25.77
2018-12-17T02:19:19.989Z,25.76
2018-12-17T02:20:19.989Z,25.80
2018-12-17T02:21:19.992Z,25.76
2018-12-17T02:22:19.995Z,25.75
2018-12-17T02:23:19.998Z,25.76
2018-12-17T02:24:20.001Z,25.77
2018-12-17T02:25:20.004Z,25.76
2018-12-17T02:26:20.007Z,25.79
2018-12-17T02:27:20.010Z,25.75
2018-12-17T02:28:20.013Z,25.80
2018-12-17T02:29:20.018Z,25.76
2018-12-17T02:30:20.019Z,25.75
2018-12-17T02:31:20.024Z,25.72
2018-12-17T02:32:20.024Z,25.76
2018-12-17T02:33:20.028Z,25.72
2018-12-17T02:34:20.031Z,25.72
2018-12-17T02:35:20.034Z,25.75
2018-12-17T02:36:20.039Z,25.80
2018-12-17T02:37:20.036Z,25.72
2018-12-17T02:38:20.041Z,25.76
2018-12-17T02:39:20.052Z,25.80
2018-12-17T02:40:20.056Z,25.76
2018-12-17T02:41:20.052Z,25.72
2018-12-17T02:42:20.057Z,25.76
2018-12-17T02:43:20.068Z,25.76
2018-12-17T02:44:20.065Z,25.75
2018-12-17T02:45:20.062Z,25.73
2018-12-17T02:46:20.070Z,25.79
2018-12-17T02:47:20.067Z,25.76
2018-12-17T02:48:20.082Z,25.79
2018-12-17T02:49:20.081Z,25.75
2018-12-17T02:50:20.089Z,25.75
2018-12-17T02:51:20.079Z,25.75
2018-12-17T02:52:20.086Z,25.76
2018-12-17T02:53:20.083Z,25.79
2018-12-17T02:54:20.087Z,25.76
2018-12-17T02:55:20.092Z,25.70
2018-12-17T02:56:20.093Z,25.87
2018-12-17T02:57:20.096Z,25.79
2018-12-17T02:58:20.100Z,25.80
2018-12-17T02:59:20.104Z,25.79
2018-12-17T03:00:20.105Z,25.80
2018-12-17T03:01:20.109Z,25.79
2018-12-17T03:02:20.111Z,25.80
2018-12-17T03:03:20.115Z,25.79
2018-12-17T03:04:20.117Z,25.79
2018-12-17T03:05:20.117Z,25.79
2018-12-17T03:06:20.130Z,25.83
2018-12-17T03:07:20.134Z,25.82
2018-12-17T03:08:20.137Z,25.79
2018-12-17T03:09:20.140Z,25.77
2018-12-17T03:10:20.137Z,25.76
2018-12-17T03:11:20.139Z,25.80
2018-12-17T03:12:20.149Z,25.75
2018-12-17T03:13:20.148Z,25.79
2018-12-17T03:14:20.145Z,25.77
2018-12-17T03:15:20.149Z,25.76
2018-12-17T03:16:20.151Z,25.79
2018-12-17T03:17:20.161Z,25.76
2018-12-17T03:18:20.156Z,25.80
2018-12-17T03:19:20.164Z,25.79
2018-12-17T03:20:20.163Z,25.80
2018-12-17T03:21:20.166Z,25.77
2018-12-17T03:22:20.170Z,25.80
2018-12-17T03:23:20.171Z,25.77
2018-12-17T03:24:20.175Z,25.79
2018-12-17T03:25:20.179Z,25.75
2018-12-17T03:26:20.180Z,25.76
2018-12-17T03:27:20.183Z,25.79
2018-12-17T03:28:20.195Z,25.82
2018-12-17T03:29:20.190Z,25.76
2018-12-17T03:30:20.251Z,25.83
2018-12-17T03:31:20.207Z,25.76
2018-12-17T03:32:20.199Z,25.79
2018-12-17T03:33:20.201Z,25.79
2018-12-17T03:34:20.206Z,25.79
2018-12-17T03:35:20.207Z,25.82
2018-12-17T03:36:20.209Z,25.82
2018-12-17T03:37:20.220Z,25.76
2018-12-17T03:38:20.216Z,25.80
2018-12-17T03:39:20.220Z,25.75
2018-12-17T03:40:20.221Z,25.77
2018-12-17T03:41:20.224Z,25.82
2018-12-17T03:42:20.228Z,25.82
2018-12-17T03:43:20.230Z,25.83
2018-12-17T03:44:20.232Z,25.85
2018-12-17T03:45:20.238Z,25.83
2018-12-17T03:46:20.243Z,25.82
2018-12-17T03:47:20.242Z,25.77
2018-12-17T03:48:20.247Z,25.77
2018-12-17T03:49:20.250Z,25.77
2018-12-17T03:50:20.251Z,25.80
2018-12-17T03:51:20.254Z,25.79
2018-12-17T03:52:20.257Z,25.79
2018-12-17T03:53:20.261Z,25.80
2018-12-17T03:54:20.264Z,25.80
2018-12-17T03:55:20.273Z,25.77
2018-12-17T03:56:20.267Z,25.77
2018-12-17T03:57:20.268Z,25.80
2018-12-17T03:58:20.274Z,25.87
2018-12-17T03:59:20.277Z,25.80
2018-12-17T04:00:20.280Z,25.79
2018-12-17T04:01:20.283Z,25.76
2018-12-17T04:02:20.291Z,25.80
2018-12-17T04:03:20.290Z,25.75
2018-12-17T04:04:20.291Z,25.76
2018-12-17T04:05:20.301Z,25.75
2018-12-17T04:06:20.303Z,25.77
2018-12-17T04:07:20.309Z,25.79
2018-12-17T04:08:20.302Z,25.83
2018-12-17T04:09:20.399Z,25.77
2018-12-17T04:10:20.308Z,25.77
2018-12-17T04:11:20.314Z,25.83
2018-12-17T04:12:20.314Z,25.80
2018-12-17T04:13:20.327Z,25.77
2018-12-17T04:14:20.321Z,25.77
2018-12-17T04:15:20.324Z,25.77
2018-12-17T04:16:20.339Z,25.76
2018-12-17T04:17:20.329Z,25.75
2018-12-17T04:18:20.337Z,25.76
2018-12-17T04:19:20.335Z,25.76
2018-12-17T04:20:20.338Z,25.80
2018-12-17T04:21:20.340Z,25.77
2018-12-17T04:22:20.345Z,25.82
2018-12-17T04:23:20.349Z,25.80
2018-12-17T04:24:20.352Z,25.76
2018-12-17T04:25:20.358Z,25.77
2018-12-17T04:26:20.360Z,25.79
2018-12-17T04:27:20.360Z,25.82
2018-12-17T04:28:20.362Z,25.79
2018-12-17T04:29:20.365Z,25.82
2018-12-17T04:30:20.367Z,25.76
2018-12-17T04:31:20.372Z,25.77
2018-12-17T04:32:20.372Z,25.77
2018-12-17T04:33:20.380Z,25.82
2018-12-17T04:34:20.378Z,25.80
2018-12-17T04:35:20.382Z,25.77
2018-12-17T04:36:20.388Z,25.85
2018-12-17T04:37:20.388Z,25.77
2018-12-17T04:38:20.391Z,25.79
2018-12-17T04:39:20.394Z,25.76
2018-12-17T04:40:20.396Z,25.83
2018-12-17T04:41:20.399Z,25.79
2018-12-17T04:42:20.404Z,25.79
2018-12-17T04:43:20.456Z,25.79
2018-12-17T04:44:20.409Z,25.79
2018-12-17T04:45:20.412Z,25.75
2018-12-17T04:46:20.416Z,25.79
2018-12-17T04:47:20.420Z,25.76
2018-12-17T04:48:20.431Z,25.79
2018-12-17T04:49:20.433Z,25.76
2018-12-17T04:50:20.429Z,25.83
2018-12-17T04:51:20.438Z,25.91
2018-12-17T04:52:20.435Z,25.79
2018-12-17T04:53:20.436Z,25.79
2018-12-17T04:54:20.438Z,25.83
2018-12-17T04:55:20.441Z,25.83
2018-12-17T04:56:20.445Z,25.77
2018-12-17T04:57:20.447Z,25.75
2018-12-17T04:58:20.451Z,25.80
2018-12-17T04:59:20.456Z,25.82
2018-12-17T05:00:20.459Z,25.83
2018-12-17T05:01:20.461Z,25.82
2018-12-17T05:02:20.461Z,25.87
2018-12-17T05:03:20.464Z,25.82
2018-12-17T05:04:20.466Z,25.77
2018-12-17T05:05:20.521Z,25.77
2018-12-17T05:06:20.524Z,25.83
2018-12-17T05:07:20.478Z,25.77
2018-12-17T05:08:20.479Z,25.77
2018-12-17T05:09:20.481Z,25.76
2018-12-17T05:10:20.489Z,25.80
2018-12-17T05:11:20.487Z,25.83
2018-12-17T05:12:20.489Z,25.83
2018-12-17T05:13:20.493Z,25.83
2018-12-17T05:14:20.496Z,25.77
2018-12-17T05:15:20.500Z,25.79
2018-12-17T05:16:20.502Z,25.82
2018-12-17T05:17:20.505Z,25.82
2018-12-17T05:18:20.521Z,25.88
2018-12-17T05:19:20.511Z,25.83
2018-12-17T05:20:20.513Z,25.91
2018-12-17T05:21:20.516Z,25.83
2018-12-17T05:22:20.524Z,25.85
2018-12-17T05:23:20.526Z,25.87
2018-12-17T05:24:20.533Z,25.88
2018-12-17T05:25:20.580Z,25.83
2018-12-17T05:26:20.534Z,25.90
2018-12-17T05:27:20.539Z,25.85
2018-12-17T05:28:20.537Z,25.87
2018-12-17T05:29:21.709Z,25.92
2018-12-17T05:30:20.543Z,25.88
2018-12-17T05:31:20.644Z,25.92
2018-12-17T05:32:20.561Z,25.91
2018-12-17T05:33:20.556Z,25.94
2018-12-17T05:34:20.554Z,25.94
2018-12-17T05:35:20.572Z,25.92
2018-12-17T05:36:20.560Z,25.90
2018-12-17T05:37:20.562Z,25.92
2018-12-17T05:38:20.567Z,25.90
2018-12-17T05:39:20.572Z,25.95
2018-12-17T05:40:20.572Z,25.92
2018-12-17T05:41:20.576Z,25.90
2018-12-17T05:42:20.594Z,25.92
2018-12-17T05:43:20.584Z,25.99
2018-12-17T05:44:20.584Z,25.95
2018-12-17T05:45:20.588Z,25.95
2018-12-17T05:46:20.646Z,25.98
2018-12-17T05:47:20.622Z,25.99
2018-12-17T05:48:20.596Z,25.97
2018-12-17T05:49:20.607Z,25.99
2018-12-17T05:50:20.603Z,25.95
2018-12-17T05:51:20.608Z,25.97
2018-12-17T05:52:20.610Z,25.97
2018-12-17T05:53:20.614Z,26.15
2018-12-17T05:54:20.615Z,26.12
2018-12-17T05:55:20.619Z,26.10
2018-12-17T05:56:20.621Z,26.13
2018-12-17T05:57:20.626Z,26.10
2018-12-17T05:58:20.627Z,26.15
2018-12-17T05:59:20.633Z,26.12
2018-12-17T06:00:20.683Z,25.98
2018-12-17T06:01:20.635Z,26.07
2018-12-17T06:02:20.690Z,25.98
2018-12-17T06:03:20.643Z,26.05
2018-12-17T06:04:20.645Z,25.97
2018-12-17T06:05:20.648Z,25.99
2018-12-17T06:06:20.659Z,25.99
2018-12-17T06:07:20.656Z,26.05
2018-12-17T06:08:20.658Z,26.06
2018-12-17T06:09:20.666Z,25.99
2018-12-17T06:10:20.665Z,26.05
2018-12-17T06:11:20.668Z,25.99
2018-12-17T06:12:20.670Z,25.99
2018-12-17T06:13:20.675Z,25.99
2018-12-17T06:14:20.678Z,26.05
2018-12-17T06:15:20.682Z,26.07
2018-12-17T06:16:20.683Z,26.02
2018-12-17T06:17:20.687Z,26.10
2018-12-17T06:18:20.690Z,26.10
2018-12-17T06:19:20.693Z,26.07
2018-12-17T06:20:20.697Z,26.23
2018-12-17T06:21:20.700Z,26.15
2018-12-17T06:22:20.703Z,26.20
2018-12-17T06:23:20.706Z,26.25
2018-12-17T06:24:20.765Z,26.18
2018-12-17T06:25:20.716Z,26.18
2018-12-17T06:26:20.716Z,26.25
2018-12-17T06:27:20.722Z,26.23
2018-12-17T06:28:20.721Z,26.23
2018-12-17T06:29:20.727Z,26.18
2018-12-17T06:30:20.783Z,26.25
2018-12-17T06:31:20.732Z,26.23
2018-12-17T06:32:20.735Z,26.18
2018-12-17T06:33:20.738Z,26.21
2018-12-17T06:34:20.744Z,26.25
2018-12-17T06:35:20.744Z,26.12
2018-12-17T06:36:20.747Z,26.10
2018-12-17T06:37:20.749Z,26.10
2018-12-17T06:38:20.753Z,26.17
2018-12-17T06:39:20.759Z,26.13
2018-12-17T06:40:20.759Z,26.10
2018-12-17T06:41:20.766Z,26.12
2018-12-17T06:42:20.766Z,26.10
2018-12-17T06:43:20.769Z,26.06
2018-12-17T06:44:20.772Z,26.23
2018-12-17T06:45:20.775Z,26.20
2018-12-17T06:46:20.780Z,26.18
2018-12-17T06:47:20.782Z,26.23
2018-12-17T06:48:20.784Z,26.23
2018-12-17T06:49:20.788Z,26.21
2018-12-17T06:50:20.794Z,26.20
2018-12-17T06:51:20.845Z,26.18
2018-12-17T06:52:20.796Z,26.20
2018-12-17T06:53:20.801Z,26.23
2018-12-17T06:54:20.806Z,26.18
2018-12-17T06:55:20.808Z,26.21
2018-12-17T06:56:20.810Z,26.18
2018-12-17T06:57:20.814Z,26.25
2018-12-17T06:58:20.818Z,26.20
2018-12-17T06:59:20.822Z,26.18
2018-12-17T07:00:20.874Z,26.15
2018-12-17T07:01:20.878Z,26.20
2018-12-17T07:02:20.881Z,26.17
2018-12-17T07:03:20.834Z,26.21
2018-12-17T07:04:20.836Z,26.25
2018-12-17T07:05:20.840Z,26.21
2018-12-17T07:06:20.844Z,26.20
2018-12-17T07:07:20.897Z,26.21
2018-12-17T07:08:20.850Z,26.20
2018-12-17T07:09:21.003Z,26.28
2018-12-17T07:10:20.857Z,26.25
2018-12-17T07:11:20.861Z,26.25
2018-12-17T07:12:20.864Z,26.21
2018-12-17T07:13:20.866Z,26.21
2018-12-17T07:14:20.869Z,26.20
2018-12-17T07:15:20.873Z,26.28
2018-12-17T07:16:21.025Z,26.25
2018-12-17T07:17:20.880Z,26.23
2018-12-17T07:18:20.881Z,26.20
2018-12-17T07:19:20.885Z,26.21
2018-12-17T07:20:20.888Z,26.25
2018-12-17T07:21:20.939Z,26.25
2018-12-17T07:22:20.899Z,26.21
2018-12-17T07:23:20.902Z,26.20
2018-12-17T07:24:20.904Z,26.21
2018-12-17T07:25:20.957Z,26.26
2018-12-17T07:26:21.008Z,26.32
2018-12-17T07:27:20.924Z,26.21
2018-12-17T07:28:20.912Z,26.32
2018-12-17T07:29:20.917Z,26.33
2018-12-17T07:30:20.922Z,26.32
2018-12-17T07:31:20.924Z,26.23
2018-12-17T07:32:20.927Z,26.25
2018-12-17T07:33:20.931Z,26.21
2018-12-17T07:34:20.934Z,26.26
2018-12-17T07:35:20.937Z,26.23
2018-12-17T07:36:20.990Z,26.25
2018-12-17T07:37:20.943Z,26.29
2018-12-17T07:38:20.947Z,26.32
2018-12-17T07:39:20.999Z,26.30
2018-12-17T07:40:20.952Z,26.25
2018-12-17T07:41:20.955Z,26.32
2018-12-17T07:42:20.959Z,26.35
2018-12-17T07:43:20.961Z,26.33
2018-12-17T07:44:20.964Z,26.30
2018-12-17T07:45:20.970Z,26.36
2018-12-17T07:46:21.427Z,26.36
2018-12-17T07:47:21.081Z,26.37
2018-12-17T07:48:20.992Z,26.32
2018-12-17T07:49:20.983Z,26.29
2018-12-17T07:50:20.986Z,26.37
2018-12-17T07:51:20.989Z,26.40
2018-12-17T07:52:20.993Z,26.29
2018-12-17T07:53:20.995Z,26.36
2018-12-17T07:54:20.999Z,26.28
2018-12-17T07:55:21.002Z,26.32
2018-12-17T07:56:21.105Z,26.35
2018-12-17T07:57:21.010Z,26.39
2018-12-17T07:58:21.012Z,26.39
2018-12-17T07:59:21.022Z,26.35
2018-12-17T08:00:21.018Z,26.40
2018-12-17T08:01:21.173Z,26.39
2018-12-17T08:02:21.025Z,26.33
2018-12-17T08:03:21.026Z,26.36
2018-12-17T08:04:21.031Z,26.36
2018-12-17T08:05:21.036Z,26.33
2018-12-17T08:06:21.037Z,26.37
2018-12-17T08:07:21.043Z,26.39
2018-12-17T08:08:21.044Z,26.36
2018-12-17T08:09:21.048Z,26.36
2018-12-17T08:10:21.051Z,26.40
2018-12-17T08:11:21.204Z,26.40
2018-12-17T08:12:21.061Z,26.37
2018-12-17T08:13:21.062Z,26.36
2018-12-17T08:14:21.064Z,26.44
2018-12-17T08:15:21.119Z,26.43
2018-12-17T08:16:21.370Z,26.47
2018-12-17T08:17:21.076Z,26.47
2018-12-17T08:18:21.077Z,26.47
2018-12-17T08:19:21.081Z,26.44
2018-12-17T08:20:21.084Z,26.40
2018-12-17T08:21:21.138Z,26.45
2018-12-17T08:22:21.090Z,26.44
2018-12-17T08:23:21.095Z,26.44
2018-12-17T08:24:21.097Z,26.36
2018-12-17T08:25:21.100Z,26.45
2018-12-17T08:26:21.105Z,26.45
2018-12-17T08:27:21.112Z,26.43
2018-12-17T08:28:21.111Z,26.45
2018-12-17T08:29:21.114Z,26.39
2018-12-17T08:30:21.116Z,26.43
2018-12-17T08:31:21.369Z,26.39
2018-12-17T08:32:21.124Z,26.43
2018-12-17T08:33:21.136Z,26.47
2018-12-17T08:34:21.179Z,26.51
2018-12-17T08:35:21.135Z,26.47
2018-12-17T08:36:21.139Z,26.45
2018-12-17T08:37:21.140Z,26.50
2018-12-17T08:38:21.153Z,26.45
2018-12-17T08:39:21.146Z,26.45
2018-12-17T08:40:21.149Z,26.52
2018-12-17T08:41:21.159Z,26.45
2018-12-17T08:42:21.163Z,26.48
2018-12-17T08:43:21.220Z,26.48
2018-12-17T08:44:21.163Z,26.51
2018-12-17T08:45:21.217Z,26.51
2018-12-17T08:46:21.171Z,26.48
2018-12-17T08:47:21.174Z,26.51
2018-12-17T08:48:21.205Z,26.54
2018-12-17T08:49:21.180Z,26.43
2018-12-17T08:50:21.184Z,26.51
2018-12-17T08:51:21.505Z,26.47
2018-12-17T08:52:21.243Z,26.45
2018-12-17T08:53:21.195Z,26.44
2018-12-17T08:54:21.196Z,26.48
2018-12-17T08:55:21.253Z,26.52
2018-12-17T08:56:21.204Z,26.52
2018-12-17T08:57:21.209Z,26.52
2018-12-17T08:58:21.209Z,26.54
2018-12-17T08:59:21.218Z,26.51
2018-12-17T09:00:21.371Z,26.48
2018-12-17T09:01:21.423Z,26.48
2018-12-17T09:02:21.225Z,26.51
2018-12-17T09:03:21.280Z,26.51
2018-12-17T09:04:21.335Z,26.48
2018-12-17T09:05:21.287Z,26.39
2018-12-17T09:06:21.246Z,26.43
2018-12-17T09:07:21.246Z,26.45
2018-12-17T09:08:21.296Z,26.44
2018-12-17T09:09:21.349Z,26.45
2018-12-17T09:10:21.252Z,26.50
2018-12-17T09:11:21.357Z,26.47
2018-12-17T09:12:21.259Z,26.47
2018-12-17T09:13:21.265Z,26.43
2018-12-17T09:14:21.267Z,26.47
2018-12-17T09:15:21.271Z,26.47
2018-12-17T09:16:21.272Z,26.45
2018-12-17T09:17:21.274Z,26.43
2018-12-17T09:18:21.280Z,26.44
2018-12-17T09:19:21.283Z,26.45
2018-12-17T09:20:21.286Z,26.45
2018-12-17T09:21:21.289Z,26.45
2018-12-17T09:22:21.348Z,26.45
2018-12-17T09:23:21.295Z,26.48
2018-12-17T09:24:21.350Z,26.45
2018-12-17T09:25:21.303Z,26.43
2018-12-17T09:26:21.308Z,26.43
2018-12-17T09:27:21.310Z,26.43
2018-12-17T09:28:21.318Z,26.48
2018-12-17T09:29:21.416Z,26.39
2018-12-17T09:30:21.321Z,26.44
2018-12-17T09:31:21.325Z,26.44
2018-12-17T09:32:21.332Z,26.40
2018-12-17T09:33:21.333Z,26.47
2018-12-17T09:34:21.383Z,26.45
2018-12-17T09:35:21.338Z,26.43
2018-12-17T09:36:21.389Z,26.48
2018-12-17T09:37:21.345Z,26.47
2018-12-17T09:38:21.346Z,26.44
2018-12-17T09:39:21.350Z,26.47
2018-12-17T09:40:21.355Z,26.43
2018-12-17T09:41:21.610Z,26.44
2018-12-17T09:42:21.361Z,26.37
2018-12-17T09:43:21.366Z,26.44
2018-12-17T09:44:21.367Z,26.39
2018-12-17T09:45:21.470Z,26.44
2018-12-17T09:46:21.441Z,26.48
2018-12-17T09:47:21.377Z,26.45
2018-12-17T09:48:21.379Z,26.48
2018-12-17T09:49:21.443Z,26.45
2018-12-17T09:50:21.387Z,26.37
2018-12-17T09:51:21.392Z,26.37
2018-12-17T09:52:21.401Z,26.36
2018-12-17T09:53:21.396Z,26.36
2018-12-17T09:54:21.407Z,26.37
2018-12-17T09:55:21.403Z,26.40
2018-12-17T09:56:21.406Z,26.37
2018-12-17T09:57:21.414Z,26.40
2018-12-17T09:58:21.416Z,26.44
2018-12-17T09:59:21.417Z,26.44
2018-12-17T10:00:25.390Z,26.45
2018-12-17T10:01:21.423Z,26.36
2018-12-17T10:02:21.425Z,26.37
2018-12-17T10:03:21.428Z,26.39
2018-12-17T10:04:21.437Z,26.39
2018-12-17T10:05:21.438Z,26.33
2018-12-17T10:06:21.539Z,26.37
2018-12-17T10:07:21.443Z,26.37
2018-12-17T10:08:21.547Z,26.39
2018-12-17T10:09:21.451Z,26.36
2018-12-17T10:10:21.453Z,26.35
2018-12-17T10:11:21.709Z,26.37
2018-12-17T10:12:21.460Z,26.45
2018-12-17T10:13:21.574Z,26.40
2018-12-17T10:14:21.517Z,26.39
2018-12-17T10:15:21.469Z,26.43
2018-12-17T10:16:21.472Z,26.40
2018-12-17T10:17:21.476Z,26.39
2018-12-17T10:18:21.480Z,26.37
2018-12-17T10:19:21.483Z,26.43
2018-12-17T10:20:21.492Z,26.47
2018-12-17T10:21:21.541Z,26.39
2018-12-17T10:22:21.494Z,26.39
2018-12-17T10:23:21.496Z,26.48
2018-12-17T10:24:21.549Z,26.48
2018-12-17T10:25:21.504Z,26.44
2018-12-17T10:26:21.506Z,26.50
2018-12-17T10:27:21.511Z,26.44
2018-12-17T10:28:21.513Z,26.45
2018-12-17T10:29:21.566Z,26.44
2018-12-17T10:30:21.521Z,26.39
2018-12-17T10:31:21.673Z,26.43
2018-12-17T10:32:21.527Z,26.39
2018-12-17T10:33:21.538Z,26.43
2018-12-17T10:34:21.583Z,26.47
2018-12-17T10:35:21.536Z,26.50
2018-12-17T10:36:21.640Z,26.45
2018-12-17T10:37:21.545Z,26.44
2018-12-17T10:38:21.547Z,26.40
2018-12-17T10:39:21.551Z,26.48
2018-12-17T10:40:21.552Z,26.47
2018-12-17T10:41:21.832Z,26.39
2018-12-17T10:42:21.559Z,26.55
2018-12-17T10:43:21.563Z,26.50
2018-12-17T10:44:21.564Z,26.40
2018-12-17T10:45:21.575Z,26.39
2018-12-17T10:46:21.572Z,26.50
2018-12-17T10:47:21.630Z,26.47
2018-12-17T10:48:21.578Z,26.47
2018-12-17T10:49:21.582Z,26.48
2018-12-17T10:50:21.586Z,26.51
2018-12-17T10:51:21.591Z,26.43
2018-12-17T10:52:21.654Z,26.44
2018-12-17T10:53:21.706Z,26.44
2018-12-17T10:54:21.597Z,26.50
2018-12-17T10:55:21.603Z,26.47
2018-12-17T10:56:21.656Z,26.43
2018-12-17T10:57:21.611Z,26.48
2018-12-17T10:58:21.611Z,26.45
2018-12-17T10:59:21.616Z,26.40
2018-12-17T11:00:21.674Z,26.45
2018-12-17T11:01:21.621Z,26.39
2018-12-17T11:02:21.625Z,26.51
2018-12-17T11:03:21.629Z,26.52
2018-12-17T11:04:21.630Z,26.48
2018-12-17T11:05:21.637Z,26.48
2018-12-17T11:06:21.639Z,26.48
2018-12-17T11:07:21.642Z,26.51
2018-12-17T11:08:21.648Z,26.50
2018-12-17T11:09:21.702Z,26.45
2018-12-17T11:10:21.806Z,26.45
2018-12-17T11:11:22.004Z,26.50
2018-12-17T11:12:21.759Z,26.40
2018-12-17T11:13:21.663Z,26.40
2018-12-17T11:14:21.664Z,26.48
2018-12-17T11:15:21.670Z,26.51
2018-12-17T11:16:21.672Z,26.50
2018-12-17T11:17:21.727Z,26.40
2018-12-17T11:18:21.678Z,26.44
2018-12-17T11:19:21.683Z,26.40
2018-12-17T11:20:21.734Z,26.43
2018-12-17T11:21:21.845Z,26.39
2018-12-17T11:22:21.742Z,26.50
2018-12-17T11:23:21.696Z,26.51
2018-12-17T11:24:21.698Z,26.43
2018-12-17T11:25:21.701Z,26.51
2018-12-17T11:26:21.755Z,26.45
2018-12-17T11:27:21.711Z,26.40
2018-12-17T11:28:21.762Z,26.45
2018-12-17T11:29:21.728Z,26.44
2018-12-17T11:30:21.770Z,26.47
2018-12-17T11:31:21.726Z,26.43
2018-12-17T11:32:21.725Z,26.47
2018-12-17T11:33:21.781Z,26.39
2018-12-17T11:34:21.783Z,26.47
2018-12-17T11:35:21.786Z,26.47
2018-12-17T11:36:21.790Z,26.51
2018-12-17T11:37:21.799Z,26.50
2018-12-17T11:38:21.753Z,26.48
2018-12-17T11:39:21.752Z,26.40
2018-12-17T11:40:21.753Z,26.48
2018-12-17T11:41:21.754Z,26.50
2018-12-17T11:42:21.759Z,26.45
2018-12-17T11:43:21.770Z,26.45
2018-12-17T11:44:21.764Z,26.45
2018-12-17T11:45:21.779Z,26.44
2018-12-17T11:46:21.774Z,26.44
2018-12-17T11:47:21.776Z,26.47
2018-12-17T11:48:21.777Z,26.48
2018-12-17T11:49:21.783Z,26.44
2018-12-17T11:50:21.785Z,26.43
2018-12-17T11:51:21.791Z,26.40
2018-12-17T11:52:21.794Z,26.35
2018-12-17T11:53:21.796Z,26.40
2018-12-17T11:54:21.800Z,26.37
2018-12-17T11:55:21.808Z,26.37
2018-12-17T11:56:21.813Z,26.35
2018-12-17T11:57:21.810Z,26.33
2018-12-17T11:58:21.822Z,26.32
2018-12-17T11:59:21.817Z,26.39
2018-12-17T12:00:21.822Z,26.33
2018-12-17T12:01:21.825Z,26.28
2018-12-17T12:02:21.826Z,26.35
2018-12-17T12:03:21.829Z,26.39
2018-12-17T12:04:21.832Z,26.35
2018-12-17T12:05:21.835Z,26.35
2018-12-17T12:06:21.840Z,26.36
2018-12-17T12:07:21.844Z,26.36
2018-12-17T12:08:21.846Z,26.37
2018-12-17T12:09:21.848Z,26.32
2018-12-17T12:10:21.858Z,26.35
2018-12-17T12:11:21.857Z,26.36
2018-12-17T12:12:21.858Z,26.37
2018-12-17T12:13:21.861Z,26.33
2018-12-17T12:14:21.865Z,26.35
2018-12-17T12:15:21.869Z,26.36
2018-12-17T12:16:21.873Z,26.39
2018-12-17T12:17:21.889Z,26.39
2018-12-17T12:18:21.889Z,26.43
2018-12-17T12:19:21.892Z,26.43
2018-12-17T12:20:21.893Z,26.48
2018-12-17T12:21:21.889Z,26.45
2018-12-17T12:22:21.897Z,26.45
2018-12-17T12:23:21.907Z,26.45
2018-12-17T12:24:21.902Z,26.44
2018-12-17T12:25:21.899Z,26.45
2018-12-17T12:26:21.906Z,26.44
2018-12-17T12:27:21.914Z,26.45
2018-12-17T12:28:21.910Z,26.43
2018-12-17T12:29:21.913Z,26.45
2018-12-17T12:30:21.919Z,26.39
2018-12-17T12:31:21.937Z,26.43
2018-12-17T12:32:21.924Z,26.44
2018-12-17T12:33:21.927Z,26.44
2018-12-17T12:34:21.932Z,26.40
2018-12-17T12:35:21.933Z,26.40
2018-12-17T12:36:21.938Z,26.40
2018-12-17T12:37:21.941Z,26.39
2018-12-17T12:38:21.944Z,26.40
2018-12-17T12:39:21.948Z,26.44
2018-12-17T12:40:21.950Z,26.45
2018-12-17T12:41:21.963Z,26.47
2018-12-17T12:42:21.960Z,26.44
2018-12-17T12:43:21.965Z,26.43
2018-12-17T12:44:21.963Z,26.45
2018-12-17T12:45:21.967Z,26.43
2018-12-17T12:46:21.972Z,26.39
2018-12-17T12:47:21.978Z,26.47
2018-12-17T12:48:21.977Z,26.36
2018-12-17T12:49:21.979Z,26.48
2018-12-17T12:50:21.986Z,26.44
2018-12-17T12:51:21.991Z,26.44
2018-12-17T12:52:21.990Z,26.47